Time;durP1;ratioP1;P1;durP2;ratioP2;P2;SDS_P1;SDS_P2;PMS_P1;PMS_P2;Temp;Humidity;BMP_temperature;BMP_pressure;BME280_temperature;BME280_humidity;BME280_pressure;Samples;Min_cycle;Max_cycle;Signal;HPM_P1;HPM_P2
2023/02/20 00:03:58;;;;;;;29.30;8.50;;;;;;;0.68;100.00;99611.25;272262;1276;22345;-90
2023/02/20 00:10:00;;;;;;;22.70;9.00;;;;;;;0.73;100.00;99608.52;269396;1277;22435;-92
2023/02/20 00:16:06;;;;;;;22.30;8.50;;;;;;;0.76;100.00;99608.42;272212;1276;22343;-92
2023/02/20 00:22:08;;;;;;;16.10;7.20;;;;;;;0.77;100.00;99603.02;271511;1277;22187;-91
2023/02/20 00:28:20;;;;;;;21.70;8.00;;;;;;;0.77;100.00;99604.36;272198;1276;22340;-92
2023/02/20 00:34:59;;;;;;;21.90;7.50;;;;;;;0.81;100.00;99598.36;271162;1276;22348;-90
2023/02/20 00:41:01;;;;;;;19.80;7.60;;;;;;;0.88;100.00;99605.63;269941;1276;22559;-90
2023/02/20 00:47:04;;;;;;;24.30;9.80;;;;;;;0.91;100.00;99607.95;268901;1275;22563;-91
2023/02/20 00:53:08;;;;;;;28.20;9.70;;;;;;;0.90;100.00;99599.43;270190;1273;22276;-91
2023/02/20 00:59:13;;;;;;;21.70;9.50;;;;;;;0.91;100.00;99589.34;271817;1275;22322;-91
2023/02/20 01:05:22;;;;;;;19.80;7.80;;;;;;;0.93;100.00;99581.22;269032;1277;22548;-91
2023/02/20 01:11:29;;;;;;;21.00;9.00;;;;;;;0.96;100.00;99578.80;271453;1275;22337;-93
2023/02/20 01:17:33;;;;;;;21.90;8.50;;;;;;;0.99;100.00;99581.91;269702;1277;23301;-91
2023/02/20 01:23:37;;;;;;;22.70;7.80;;;;;;;1.01;100.00;99585.26;268943;1277;23750;-91
2023/02/20 01:29:42;;;;;;;21.20;7.10;;;;;;;1.01;100.00;99596.31;268814;1273;24340;-91
2023/02/20 01:35:50;;;;;;;20.60;6.90;;;;;;;1.01;100.00;99597.94;268431;1278;22579;-92
2023/02/20 01:42:05;;;;;;;18.40;6.70;;;;;;;1.03;100.00;99595.88;268135;1276;22551;-91
2023/02/20 01:48:24;;;;;;;25.60;8.40;;;;;;;1.05;100.00;99590.70;269702;1267;22603;-90
2023/02/20 01:54:30;;;;;;;17.00;7.10;;;;;;;1.07;100.00;99586.23;268657;1276;23898;-91
2023/02/20 02:00:35;;;;;;;24.10;7.70;;;;;;;1.08;100.00;99580.45;268996;1276;22524;-91
2023/02/20 02:06:44;;;;;;;18.20;7.50;;;;;;;1.09;100.00;99574.61;268693;1276;23808;-93
2023/02/20 02:12:51;;;;;;;20.30;7.60;;;;;;;1.07;100.00;99563.91;269554;1276;22627;-91
2023/02/20 02:19:23;;;;;;;26.30;7.00;;;;;;;1.09;100.00;99557.84;269569;1277;22316;-91
2023/02/20 02:25:47;;;;;;;14.00;5.90;;;;;;;1.10;100.00;99545.90;272142;1277;23072;-90
2023/02/20 02:32:17;;;;;;;18.20;6.30;;;;;;;1.11;100.00;99536.49;272235;1273;22996;-91
2023/02/20 02:38:34;;;;;;;14.90;5.70;;;;;;;1.15;100.00;99542.46;269246;1277;22599;-91
2023/02/20 02:45:14;;;;;;;15.10;5.70;;;;;;;1.16;100.00;99538.92;270969;1276;22352;-91
2023/02/20 02:51:25;;;;;;;15.20;5.70;;;;;;;1.17;100.00;99525.05;270146;1278;22241;-92
2023/02/20 02:57:29;;;;;;;16.00;5.30;;;;;;;1.17;100.00;99519.95;271606;1276;22541;-92
2023/02/20 03:03:44;;;;;;;14.90;5.50;;;;;;;1.19;100.00;99531.55;272142;1277;23292;-91
2023/02/20 03:10:01;;;;;;;27.40;6.60;;;;;;;1.21;100.00;99536.39;272112;1280;22256;-92
2023/02/20 03:16:11;;;;;;;12.40;5.60;;;;;;;1.23;100.00;99533.00;272197;1278;22405;-92
2023/02/20 03:22:34;;;;;;;13.40;5.20;;;;;;;1.22;100.00;99509.64;272328;1277;22313;-92
2023/02/20 03:28:40;;;;;;;14.90;5.30;;;;;;;1.20;100.00;99474.02;272174;1270;22254;-92
2023/02/20 03:47:36;;;;;;;8.80;3.40;;;;;;;1.10;100.00;99469.31;272409;1276;23482;-92
2023/02/20 03:53:43;;;;;;;11.10;3.00;;;;;;;1.07;100.00;99474.55;271421;1276;22198;-91
2023/02/20 03:59:52;;;;;;;14.40;3.90;;;;;;;1.06;100.00;99477.27;272294;1266;22267;-91
2023/02/20 04:05:56;;;;;;;9.70;3.60;;;;;;;1.04;100.00;99473.55;270852;1276;22222;-92
2023/02/20 04:12:13;;;;;;;16.90;4.80;;;;;;;1.02;100.00;99482.87;272161;1276;22324;-92
2023/02/20 04:18:20;;;;;;;22.30;6.00;;;;;;;0.96;100.00;99488.96;272041;1276;23165;-92
2023/02/20 04:24:42;;;;;;;13.60;4.90;;;;;;;0.90;100.00;99483.10;272165;1276;22262;-93
2023/02/20 04:30:56;;;;;;;14.60;4.30;;;;;;;0.82;100.00;99474.80;271954;1277;23453;-92
2023/02/20 04:37:20;;;;;;;8.20;3.10;;;;;;;0.74;100.00;99470.65;271279;1276;22671;-92
2023/02/20 04:43:27;;;;;;;6.10;2.60;;;;;;;0.65;100.00;99474.11;269870;1264;24042;-91
2023/02/20 04:49:34;;;;;;;11.10;3.00;;;;;;;0.58;100.00;99458.66;269040;1276;22545;-91
2023/02/20 04:55:42;;;;;;;11.30;2.90;;;;;;;0.52;100.00;99434.64;271723;1276;22504;-92
2023/02/20 05:02:27;;;;;;;11.50;2.80;;;;;;;0.49;99.98;99430.89;271656;1275;22352;-90
2023/02/20 05:09:11;;;;;;;6.00;2.90;;;;;;;0.42;100.00;99441.90;271859;1276;22332;-89
2023/02/20 05:15:14;;;;;;;7.80;2.90;;;;;;;0.38;100.00;99440.63;272289;1270;22229;-90
2023/02/20 05:27:37;;;;;;;7.60;2.90;;;;;;;0.25;99.96;99420.29;271294;1276;22216;-90
2023/02/20 05:33:49;;;;;;;7.10;3.20;;;;;;;0.13;99.97;99413.02;272346;1276;23264;-90
2023/02/20 05:39:57;;;;;;;15.30;4.70;;;;;;;0.04;100.00;99415.61;271950;1277;22327;-91
2023/02/20 05:46:04;;;;;;;16.00;6.30;;;;;;;0.05;100.00;99421.56;270146;1276;22639;-89
2023/02/20 05:52:11;;;;;;;13.60;4.20;;;;;;;0.12;100.00;99418.91;268950;1276;22543;-91
2023/02/20 05:58:16;;;;;;;11.10;3.80;;;;;;;0.22;100.00;99419.44;268983;1276;22552;-90
2023/02/20 06:04:19;;;;;;;13.30;4.00;;;;;;;0.31;100.00;99413.45;269689;1264;24225;-90
2023/02/20 06:10:27;;;;;;;9.00;3.50;;;;;;;0.39;100.00;99427.73;271871;1277;22333;-91
2023/02/20 06:16:30;;;;;;;9.00;3.00;;;;;;;0.60;100.00;99442.56;271601;1276;22619;-91
2023/02/20 06:22:33;;;;;;;13.10;3.40;;;;;;;0.92;100.00;99433.35;270952;1275;22557;-91
2023/02/20 06:36:24;;;;;;;15.40;5.50;;;;;;;1.24;99.77;99429.86;271433;1275;22597;-89
2023/02/20 06:43:02;;;;;;;8.80;3.80;;;;;;;1.25;99.68;99429.68;271310;1275;22368;-91
2023/02/20 06:49:18;;;;;;;13.50;4.80;;;;;;;1.31;99.56;99434.83;272053;1275;23364;-92
2023/02/20 06:55:24;;;;;;;16.20;5.70;;;;;;;1.38;99.47;99440.18;269731;1276;22409;-91
2023/02/20 07:01:41;;;;;;;;;;;;;;;1.46;99.32;99426.51;269894;1276;23656;-91
2023/02/20 07:07:52;;;;;;;12.50;5.00;;;;;;;1.54;99.46;99410.23;270238;1276;22334;-90
2023/02/20 07:14:01;;;;;;;9.70;4.60;;;;;;;1.65;99.52;99399.67;270780;1262;22346;-92
2023/02/20 07:20:06;;;;;;;14.60;5.40;;;;;;;1.78;99.29;99390.08;271238;1276;23780;-91
2023/02/20 07:26:20;;;;;;;12.50;5.10;;;;;;;1.92;99.18;99377.50;272104;1276;22376;-91
2023/02/20 07:32:29;;;;;;;15.20;5.60;;;;;;;2.09;98.74;99379.53;272076;1276;22190;-91
2023/02/20 07:38:40;;;;;;;14.60;5.20;;;;;;;2.25;98.34;99370.59;270562;1276;22225;-90
2023/02/20 07:44:45;;;;;;;18.50;5.50;;;;;;;2.42;97.99;99371.29;270618;1277;23387;-90
2023/02/20 07:50:51;;;;;;;10.90;5.20;;;;;;;2.70;98.07;99370.56;270130;1275;23979;-90
2023/02/20 07:56:54;;;;;;;17.70;6.20;;;;;;;3.01;97.24;99361.62;268991;1276;22682;-90
2023/02/20 08:02:59;;;;;;;12.70;6.30;;;;;;;3.26;96.79;99348.53;268267;1276;24250;-89
2023/02/20 08:09:02;;;;;;;26.50;8.90;;;;;;;3.58;96.45;99336.66;268911;1276;24502;-89
2023/02/20 08:15:12;;;;;;;19.30;6.60;;;;;;;3.82;95.94;99326.71;268478;1276;22664;-89
2023/02/20 08:21:17;;;;;;;11.70;5.20;;;;;;;4.02;95.77;99330.41;268550;1276;22575;-91
2023/02/20 08:27:20;;;;;;;11.20;4.50;;;;;;;4.32;95.41;99327.42;268813;1271;25418;-91
2023/02/20 08:33:30;;;;;;;11.50;4.60;;;;;;;4.63;95.10;99337.13;270010;1275;22570;-92
2023/02/20 08:39:38;;;;;;;17.20;5.50;;;;;;;4.76;94.34;99327.88;270145;1277;22546;-93
2023/02/20 08:45:41;;;;;;;9.70;3.90;;;;;;;4.82;93.95;99315.92;269702;1275;22418;-91
2023/02/20 08:51:52;;;;;;;12.40;5.10;;;;;;;4.84;94.22;99296.32;269814;1270;22899;-91
2023/02/20 08:57:59;;;;;;;9.50;3.90;;;;;;;4.99;94.61;99284.85;269789;1276;23542;-91
2023/02/20 09:04:07;;;;;;;13.70;4.10;;;;;;;5.36;94.27;99288.12;269947;1276;22408;-92
2023/02/20 09:10:31;;;;;;;6.70;3.40;;;;;;;5.52;93.46;99276.05;269474;1276;23740;-91
2023/02/20 09:16:42;;;;;;;10.70;3.60;;;;;;;5.71;93.02;99265.92;270049;1276;25456;-90
2023/02/20 09:22:49;;;;;;;9.60;3.90;;;;;;;5.93;92.54;99257.24;270601;1275;23389;-90
2023/02/20 09:29:08;;;;;;;11.40;4.20;;;;;;;6.21;92.57;99244.27;269162;1276;214499;-90
2023/02/20 09:35:23;;;;;;;6.50;3.50;;;;;;;6.30;91.80;99225.84;270989;1276;22569;-90
2023/02/20 09:41:52;;;;;;;8.20;4.20;;;;;;;6.47;91.64;99212.21;272038;1269;22357;-91
2023/02/20 09:48:30;;;;;;;8.00;3.60;;;;;;;6.50;90.76;99201.43;271334;1270;22392;-90
2023/02/20 09:54:41;;;;;;;6.90;2.90;;;;;;;6.48;91.18;99189.32;272184;1275;22379;-91
2023/02/20 10:00:43;;;;;;;5.90;3.20;;;;;;;6.53;91.43;99181.54;271663;1276;22413;-91
2023/02/20 10:06:51;;;;;;;6.60;3.90;;;;;;;6.64;90.96;99180.85;271190;1275;22231;-92
2023/02/20 10:13:38;;;;;;;11.40;3.70;;;;;;;6.82;91.20;99175.95;271372;1275;22932;-91
2023/02/20 10:19:51;;;;;;;10.30;3.60;;;;;;;7.11;91.25;99163.87;272292;1271;22352;-91
2023/02/20 10:33:34;;;;;;;;;;;;;;;;;;;;;
2023/02/20 10:41:01;;;;;;;8.10;3.20;;;;;;;7.39;89.98;99118.56;271392;1275;22411;-92
2023/02/20 10:47:18;;;;;;;10.00;4.00;;;;;;;7.36;89.21;99093.83;269608;1273;23692;-92
2023/02/20 10:53:44;;;;;;;5.00;2.60;;;;;;;7.39;89.51;99086.58;269462;1275;22325;-90
2023/02/20 10:59:54;;;;;;;5.30;2.40;;;;;;;7.41;89.28;99070.44;271449;1276;22570;-91
2023/02/20 11:05:58;;;;;;;6.20;3.20;;;;;;;7.40;88.68;99066.13;270605;1270;22360;-92
2023/02/20 11:12:26;;;;;;;7.60;2.90;;;;;;;7.39;88.40;99059.34;268562;1277;22628;-91
2023/02/20 11:18:43;;;;;;;5.70;2.80;;;;;;;7.33;87.34;99021.68;269398;1276;22590;-91
2023/02/20 11:25:10;;;;;;;;;;;;;;;;;;;;;
2023/02/20 11:31:31;;;;;;;4.40;1.90;;;;;;;7.22;88.65;98997.38;263323;1277;10002102;-91
2023/02/20 11:37:41;;;;;;;7.20;3.00;;;;;;;7.22;88.73;98997.94;271279;1276;22926;-89
2023/02/20 11:44:18;;;;;;;5.00;2.90;;;;;;;7.31;88.89;98989.66;270449;1276;22215;-91
2023/02/20 11:51:01;;;;;;;6.40;3.60;;;;;;;7.36;88.80;98976.33;270622;1276;22619;-91
2023/02/20 11:57:26;;;;;;;7.40;4.20;;;;;;;7.37;88.61;98965.91;270613;1273;22558;-91
2023/02/20 12:04:04;;;;;;;6.00;3.40;;;;;;;7.37;88.26;98951.30;270362;1275;22684;-89
2023/02/20 12:10:41;;;;;;;8.50;3.90;;;;;;;7.52;88.79;98936.23;272185;1277;22395;-90
2023/02/20 12:17:11;;;;;;;8.50;4.70;;;;;;;7.73;88.46;98902.84;272244;1276;23135;-89
2023/02/20 12:23:23;;;;;;;7.40;3.80;;;;;;;7.86;87.89;98883.08;271846;1275;22439;-89
2023/02/20 12:29:50;;;;;;;15.90;5.40;;;;;;;7.97;87.91;98863.05;269620;1276;22393;-89
2023/02/20 12:36:09;;;;;;;8.10;4.20;;;;;;;8.01;87.11;98866.15;272293;1276;22328;-90
2023/02/20 12:42:20;;;;;;;8.20;4.60;;;;;;;7.97;86.56;98860.94;269216;1277;22578;-90
2023/02/20 12:48:49;;;;;;;6.30;3.70;;;;;;;7.92;86.61;98863.09;269818;1276;22372;-88
2023/02/20 12:55:03;;;;;;;7.40;4.60;;;;;;;7.93;86.62;98857.84;270700;1270;23142;-90
2023/02/20 13:01:16;;;;;;;5.30;3.60;;;;;;;7.91;86.15;98827.73;269295;1276;22520;-89
2023/02/20 13:07:40;;;;;;;7.20;4.00;;;;;;;8.00;86.33;98806.78;269988;1275;22337;-92
2023/02/20 13:14:18;;;;;;;6.50;4.10;;;;;;;8.09;86.30;98794.48;271518;1275;22556;-91
2023/02/20 13:21:00;;;;;;;10.90;5.10;;;;;;;8.31;86.18;98784.61;270870;1277;22275;-92
2023/02/20 13:27:17;;;;;;;;;;;;;;;;;;;;;
2023/02/20 13:33:37;;;;;;;6.70;4.10;;;;;;;8.43;85.24;98775.08;270518;1277;22271;-90
2023/02/20 13:39:57;;;;;;;6.10;3.50;;;;;;;8.42;84.18;98768.96;271197;1275;22320;-91
2023/02/20 13:46:09;;;;;;;;;;;;;;;;;;;;;
2023/02/20 13:52:42;;;;;;;7.60;4.60;;;;;;;8.35;83.70;98736.98;269817;1277;23756;-90
2023/02/20 13:59:17;;;;;;;7.90;3.70;;;;;;;8.24;83.38;98709.84;270424;1276;22547;-90
2023/02/20 14:05:45;;;;;;;6.90;4.00;;;;;;;8.24;83.26;98684.60;270996;1276;22236;-90
2023/02/20 14:12:29;;;;;;;7.80;4.40;;;;;;;8.25;82.96;98672.48;271866;1277;22335;-92
2023/02/20 14:18:41;;;;;;;7.50;4.20;;;;;;;8.23;82.68;98655.59;272282;1276;22216;-91
2023/02/20 14:24:59;;;;;;;9.30;4.90;;;;;;;8.18;82.63;98632.05;271731;1270;22590;-90
2023/02/20 14:31:25;;;;;;;6.70;4.00;;;;;;;8.18;82.77;98611.58;270727;1276;25262;-90
2023/02/20 14:37:50;;;;;;;8.60;4.80;;;;;;;8.13;82.23;98593.42;269270;1276;22432;-91
2023/02/20 14:44:04;;;;;;;10.00;5.10;;;;;;;8.00;82.22;98584.67;269568;1268;22889;-91
2023/02/20 14:50:21;;;;;;;9.20;5.10;;;;;;;7.87;82.32;98574.36;271297;1277;24251;-91
2023/02/20 14:56:33;;;;;;;7.40;4.90;;;;;;;7.74;82.08;98546.05;269534;1277;23351;-90
2023/02/20 15:02:43;;;;;;;6.90;4.30;;;;;;;7.63;82.66;98527.59;268571;1276;24404;-91
2023/02/20 15:08:45;;;;;;;8.70;5.00;;;;;;;7.53;82.75;98507.52;268444;1277;22598;-90
2023/02/20 15:15:07;;;;;;;7.90;4.20;;;;;;;7.45;82.86;98493.78;268984;1276;23005;-91
2023/02/20 15:21:12;;;;;;;10.00;5.10;;;;;;;7.37;82.60;98490.94;272086;1278;22315;-90
2023/02/20 15:27:21;;;;;;;10.90;5.10;;;;;;;7.29;82.89;98484.98;271277;1277;22582;-89
2023/02/20 15:33:26;;;;;;;9.40;5.20;;;;;;;7.23;83.13;98485.42;269741;1275;22355;-90
2023/02/20 15:39:41;;;;;;;10.10;4.50;;;;;;;7.18;83.18;98491.79;271245;1275;22656;-91
2023/02/20 15:46:18;;;;;;;7.80;5.30;;;;;;;7.10;83.32;98492.11;270743;1276;21736;-89
2023/02/20 15:52:34;;;;;;;13.10;5.70;;;;;;;7.04;83.61;98486.88;269856;1277;22284;-90
2023/02/20 15:58:54;;;;;;;10.60;5.60;;;;;;;7.03;83.74;98474.67;270320;1276;23384;-90
2023/02/20 16:05:09;;;;;;;10.60;5.50;;;;;;;6.99;84.00;98461.78;271685;1277;22337;-90
2023/02/20 16:11:25;;;;;;;12.10;5.70;;;;;;;7.05;84.16;98462.73;272074;1275;22453;-91
2023/02/20 16:17:31;;;;;;;10.20;5.20;;;;;;;7.18;83.95;98461.45;271848;1277;22343;-92
2023/02/20 16:23:37;;;;;;;8.50;5.00;;;;;;;7.29;84.00;98475.73;271873;1277;22436;-91
2023/02/20 16:37:21;;;;;;;13.80;5.20;;;;;;;7.78;83.49;98497.85;271961;1273;22962;-90
2023/02/20 16:44:09;;;;;;;14.20;5.50;;;;;;;7.90;83.46;98506.11;271952;1277;22331;-90
2023/02/20 16:51:00;;;;;;;13.50;5.50;;;;;;;8.02;83.13;98509.46;271764;1276;22259;-90
2023/02/20 16:57:53;;;;;;;11.70;4.60;;;;;;;8.08;83.08;98518.90;271136;1269;22633;-91
2023/02/20 17:04:19;;;;;;;11.50;4.60;;;;;;;8.19;83.10;98517.71;269428;1270;22624;-90
2023/02/20 17:10:23;;;;;;;12.90;4.40;;;;;;;8.29;82.86;98517.80;268704;1277;25345;-90
2023/02/20 17:16:54;;;;;;;10.00;4.50;;;;;;;8.42;82.70;98506.81;269699;1281;22397;-92
2023/02/20 17:23:53;;;;;;;11.70;4.50;;;;;;;8.51;82.57;98505.74;268736;1280;22592;-89
2023/02/20 17:30:15;;;;;;;10.90;4.40;;;;;;;8.59;82.56;98502.33;272116;1275;22845;-92
2023/02/20 17:36:20;;;;;;;16.90;4.70;;;;;;;8.67;82.70;98503.98;270593;1277;23589;-91
2023/02/20 17:42:23;;;;;;;8.20;4.10;;;;;;;8.76;82.55;98492.52;269867;1275;23749;-90
2023/02/20 17:48:26;;;;;;;8.30;3.80;;;;;;;8.95;81.50;98480.09;269559;1276;22558;-92
2023/02/20 17:54:34;;;;;;;6.80;3.60;;;;;;;8.99;81.90;98493.55;270069;1277;22587;-92
2023/02/20 18:00:52;;;;;;;8.90;3.70;;;;;;;9.04;81.81;98493.34;263238;1276;10002041;-91
2023/02/20 18:07:16;;;;;;;8.70;4.10;;;;;;;9.05;81.92;98492.58;271579;1276;22847;-90
2023/02/20 18:13:28;;;;;;;7.20;3.30;;;;;;;9.10;81.86;98486.69;269552;1269;22543;-91
2023/02/20 18:19:33;;;;;;;5.00;2.80;;;;;;;9.14;81.69;98480.80;270559;1277;25407;-90
2023/02/20 18:25:45;;;;;;;7.40;3.40;;;;;;;9.22;81.33;98478.91;270922;1276;22553;-91
2023/02/20 18:31:55;;;;;;;7.90;3.70;;;;;;;9.31;80.82;98481.32;268686;1279;24390;-92
2023/02/20 18:38:01;;;;;;;6.90;3.40;;;;;;;9.38;80.34;98484.73;270202;1278;22562;-91
2023/02/20 18:44:12;;;;;;;8.50;3.80;;;;;;;9.43;80.38;98481.02;270088;1276;22240;-90
2023/02/20 18:50:23;;;;;;;6.30;3.20;;;;;;;9.44;80.05;98479.55;270333;1276;22317;-91
2023/02/20 18:56:28;;;;;;;8.70;3.40;;;;;;;9.46;80.09;98474.42;271469;1276;22953;-90
2023/02/20 19:02:38;;;;;;;8.20;2.80;;;;;;;9.42;80.23;98463.54;270030;1275;23099;-91
2023/02/20 19:09:39;;;;;;;7.80;3.20;;;;;;;9.38;80.14;98461.40;271123;1276;22398;-91
2023/02/20 19:16:02;;;;;;;9.60;2.80;;;;;;;9.44;79.96;98455.29;269769;1276;22550;-91
2023/02/20 19:22:09;;;;;;;;;;;;;;;9.44;80.07;98454.66;270705;1277;22504;-89
2023/02/20 19:28:15;;;;;;;16.40;2.90;;;;;;;9.48;79.97;98457.33;271434;1277;25400;-92
2023/02/20 19:34:22;;;;;;;6.60;3.30;;;;;;;9.56;79.52;98452.23;271445;1279;22225;-92
2023/02/20 19:40:27;;;;;;;7.30;2.90;;;;;;;9.59;79.46;98450.92;270276;1276;22557;-92
2023/02/20 19:46:29;;;;;;;7.30;2.80;;;;;;;9.61;79.40;98447.27;269650;1276;24287;-89
2023/02/20 19:52:36;;;;;;;8.70;3.20;;;;;;;9.62;79.34;98455.00;270510;1276;22228;-91
2023/02/20 19:58:40;;;;;;;6.30;3.00;;;;;;;9.71;79.02;98452.88;271212;1276;22566;-90
2023/02/20 20:04:45;;;;;;;6.70;2.90;;;;;;;9.74;78.90;98460.31;270136;1277;23021;-90
2023/02/20 20:11:02;;;;;;;8.50;3.00;;;;;;;9.73;78.82;98458.51;269932;1278;22380;-89
2023/02/20 20:17:04;;;;;;;7.00;2.60;;;;;;;9.68;78.93;98455.12;271712;1277;22564;-91
2023/02/20 20:23:24;;;;;;;7.10;2.50;;;;;;;9.64;79.12;98457.05;269805;1267;22565;-92
2023/02/20 20:29:32;;;;;;;6.90;2.80;;;;;;;9.54;79.15;98456.83;270335;1278;22341;-90
2023/02/20 20:36:27;;;;;;;6.10;3.50;;;;;;;9.48;79.12;98453.51;272217;1276;23657;-93
2023/02/20 20:42:35;;;;;;;13.80;3.50;;;;;;;9.46;79.08;98451.23;272097;1276;22603;-90
2023/02/20 20:48:59;;;;;;;5.50;2.70;;;;;;;9.41;79.51;98441.36;272136;1280;22225;-91
2023/02/20 20:55:15;;;;;;;4.80;2.40;;;;;;;9.38;79.58;98435.41;272038;1275;22352;-93
2023/02/20 21:01:42;;;;;;;6.10;2.70;;;;;;;9.43;79.70;98436.85;272068;1276;22250;-90
2023/02/20 21:07:45;;;;;;;6.10;2.70;;;;;;;9.48;79.74;98428.98;272048;1276;22370;-91
2023/02/20 21:13:48;;;;;;;7.00;3.00;;;;;;;9.51;79.70;98416.45;272093;1276;22329;-90
2023/02/20 21:19:51;;;;;;;5.80;2.90;;;;;;;9.62;79.47;98410.11;272079;1276;22430;-91
2023/02/20 21:25:56;;;;;;;5.00;2.70;;;;;;;9.61;79.40;98406.98;271970;1276;250499;-90
2023/02/20 21:32:25;;;;;;;5.80;2.70;;;;;;;9.65;79.32;98394.44;272076;1276;23025;-91
2023/02/20 21:38:28;;;;;;;6.00;2.80;;;;;;;9.70;79.33;98400.94;271982;1276;22911;-90
2023/02/20 21:44:41;;;;;;;7.50;3.10;;;;;;;9.70;79.11;98395.63;272160;1276;22420;-88
2023/02/20 21:50:48;;;;;;;6.30;2.40;;;;;;;9.75;78.84;98389.71;270414;1272;23275;-90
2023/02/20 21:56:53;;;;;;;7.30;2.30;;;;;;;9.78;78.72;98393.33;264693;1276;10001988;-91
